Метеостанция


АнтоновUKKM 250400Z 23002MPS CAVOK 12/10 Q1018
БориспольUKBB 250400Z 23003MPS CAVOK 13/10 Q1019 R88/CLRD// NOSIG
Гаврышовка (Винница)UKWW 250400Z VRB01MPS CAVOK 12/09 Q1018 R13/0///65 NOSIG
ДнепропетровскUKDD 250400Z 02003MPS CAVOK 14/11 Q1019 R08/090070 NOSIG
ДонецкNo METAR available for UKCC.
ЖуляныUKKK 250400Z 25002MPS CAVOK 12/10 Q1019 R26/CLRD70 NOSIG
Запорожье(Мокрая)UKDE 250400Z 04002MPS 360V090 CAVOK 18/12 Q1018 R02R/210470 NOSIG
Ивано-ФранковскUKLI 250400Z 00000MPS 9999 SCT046 BKN100 10/10 Q1018 R28/090070 NOSIG
Кривой РогUKDR 250400Z 00000MPS CAVOK 15/09 Q1019 R36/09//70 NOSIG
ЛуганскNo METAR available for UKCW.
ЛьвовUKLL 250400Z 25002MPS 220V290 9999 SCT020 11/09 Q1018 R13/CLRD// NOSIG
МариупольNo METAR available for UKCM.
НиколаевUKON 250400Z 03002MPS 360V060 CAVOK 16/11 Q1019 NOSIG
ОдессаUKOO 250400Z 04003MPS CAVOK 18/09 Q1018 R16/090060 NOSIG
РовноUKLR 250400Z 22003MPS 9999 SCT030 12/10 Q1017 NOSIG
СимферопольNo METAR available for UKFF.
УжгородUKLU 250400Z 00000MPS 9999 SCT040 11/10 Q1017 NOSIG
ХарьковUKHH 250400Z 32002MPS CAVOK 14/11 Q1020 R25/0///72 NOSIG
ЧеркассыNo METAR available for UKKE.
ЧерновцыUKLN 250400Z VRB01MPS CAVOK 11/10 Q1018 R15/09//70 NOSIG
Скачать:
Скачать этот файл (Metar_шпаргалка.jpg)Расшифровка METAR[ ]4799 Кб
Вся информация, которая имеется в использовании на сайте и доступная для скачивания, получена исключительно из открытых источников информации сети Интернет, всякое совпадение с данными, имеющими ограничения в доступе, случайное и не является преднамеренным.